sensor_id;sensor_type;location;lat;lon;timestamp;pressure;altitude;pressure_sealevel;temperature;humidity
44309;BME280;30022;55.846;37.340;2024-03-22T00:02:33;46590.53;;;-143.51;100.00
44309;BME280;30022;55.846;37.340;2024-03-22T00:05:07;46568.81;;;-143.51;100.00
44309;BME280;30022;55.846;37.340;2024-03-22T00:07:35;46586.59;;;-143.51;100.00
44309;BME280;30022;55.846;37.340;2024-03-22T00:10:05;46592.53;;;-143.51;100.00
44309;BME280;30022;55.846;37.340;2024-03-22T00:12:33;46556.97;;;-143.51;100.00
44309;BME280;30022;55.846;37.340;2024-03-22T00:15:14;46590.53;;;-143.51;100.00
44309;BME280;30022;55.846;37.340;2024-03-22T00:17:49;46564.88;;;-143.51;100.00
44309;BME280;30022;55.846;37.340;2024-03-22T00:20:15;46576.72;;;-143.51;100.00
44309;BME280;30022;55.846;37.340;2024-03-22T00:22:44;46590.53;;;-143.51;100.00
44309;BME280;30022;55.846;37.340;2024-03-22T00:25:16;46551.06;;;-143.51;100.00
44309;BME280;30022;55.846;37.340;2024-03-22T00:27:45;46590.53;;;-143.51;100.00
44309;BME280;30022;55.846;37.340;2024-03-22T00:30:12;46604.38;;;-143.51;100.00
44309;BME280;30022;55.846;37.340;2024-03-22T00:32:44;46588.56;;;-143.51;100.00
44309;BME280;30022;55.846;37.340;2024-03-22T00:35:11;46562.91;;;-143.51;100.00
44309;BME280;30022;55.846;37.340;2024-03-22T00:37:37;46558.94;;;-143.51;100.00
44309;BME280;30022;55.846;37.340;2024-03-22T00:40:03;46582.66;;;-143.51;100.00
44309;BME280;30022;55.846;37.340;2024-03-22T00:42:34;46556.97;;;-143.51;100.00
44309;BME280;30022;55.846;37.340;2024-03-22T00:45:08;46570.78;;;-143.51;100.00
44309;BME280;30022;55.846;37.340;2024-03-22T00:47:34;46580.66;;;-143.51;100.00
44309;BME280;30022;55.846;37.340;2024-03-22T00:50:03;46570.78;;;-143.51;100.00
44309;BME280;30022;55.846;37.340;2024-03-22T00:52:32;46562.91;;;-143.51;100.00
44309;BME280;30022;55.846;37.340;2024-03-22T00:55:06;46555.00;;;-143.51;100.00
44309;BME280;30022;55.846;37.340;2024-03-22T00:57:35;46602.41;;;-143.51;100.00
44309;BME280;30022;55.846;37.340;2024-03-22T01:00:04;46564.88;;;-143.51;100.00
44309;BME280;30022;55.846;37.340;2024-03-22T01:02:34;46562.91;;;-143.51;100.00
44309;BME280;30022;55.846;37.340;2024-03-22T01:05:00;46564.88;;;-143.51;100.00
44309;BME280;30022;55.846;37.340;2024-03-22T01:07:28;46562.91;;;-143.51;100.00
44309;BME280;30022;55.846;37.340;2024-03-22T01:09:59;46578.69;;;-143.51;100.00
44309;BME280;30022;55.846;37.340;2024-03-22T01:12:30;46584.63;;;-143.51;100.00
44309;BME280;30022;55.846;37.340;2024-03-22T01:14:57;46556.97;;;-143.51;100.00
44309;BME280;30022;55.846;37.340;2024-03-22T01:17:24;46572.78;;;-143.51;100.00
44309;BME280;30022;55.846;37.340;2024-03-22T01:19:50;46574.75;;;-143.51;100.00
44309;BME280;30022;55.846;37.340;2024-03-22T01:22:19;46547.09;;;-143.51;100.00
44309;BME280;30022;55.846;37.340;2024-03-22T01:24:48;46590.53;;;-143.51;100.00
44309;BME280;30022;55.846;37.340;2024-03-22T01:27:14;46562.91;;;-143.51;100.00
44309;BME280;30022;55.846;37.340;2024-03-22T01:29:43;46606.34;;;-143.51;100.00
44309;BME280;30022;55.846;37.340;2024-03-22T01:32:11;46576.72;;;-143.51;100.00
44309;BME280;30022;55.846;37.340;2024-03-22T01:34:39;46547.09;;;-143.51;100.00
44309;BME280;30022;55.846;37.340;2024-03-22T01:37:05;46590.53;;;-143.51;100.00
44309;BME280;30022;55.846;37.340;2024-03-22T01:39:33;46566.84;;;-143.51;100.00
44309;BME280;30022;55.846;37.340;2024-03-22T01:42:02;46562.91;;;-143.51;100.00
44309;BME280;30022;55.846;37.340;2024-03-22T01:44:31;46568.81;;;-143.51;100.00
44309;BME280;30022;55.846;37.340;2024-03-22T01:47:02;46578.69;;;-143.51;100.00
44309;BME280;30022;55.846;37.340;2024-03-22T01:49:30;46562.91;;;-143.51;100.00
44309;BME280;30022;55.846;37.340;2024-03-22T01:51:59;46570.78;;;-143.51;100.00
44309;BME280;30022;55.846;37.340;2024-03-22T01:54:25;46549.06;;;-143.51;100.00
44309;BME280;30022;55.846;37.340;2024-03-22T01:56:53;46566.84;;;-143.51;100.00
44309;BME280;30022;55.846;37.340;2024-03-22T01:59:22;46560.91;;;-143.51;100.00
44309;BME280;30022;55.846;37.340;2024-03-22T02:01:53;46584.63;;;-143.51;100.00
44309;BME280;30022;55.846;37.340;2024-03-22T02:04:24;46582.66;;;-143.51;100.00
44309;BME280;30022;55.846;37.340;2024-03-22T02:06:53;46560.91;;;-143.51;100.00
44309;BME280;30022;55.846;37.340;2024-03-22T02:09:20;46574.75;;;-143.51;100.00
44309;BME280;30022;55.846;37.340;2024-03-22T02:12:22;46580.66;;;-143.51;100.00
44309;BME280;30022;55.846;37.340;2024-03-22T02:14:50;46584.63;;;-143.51;100.00
44309;BME280;30022;55.846;37.340;2024-03-22T02:17:21;46558.94;;;-143.51;100.00
44309;BME280;30022;55.846;37.340;2024-03-22T02:19:48;46572.78;;;-143.51;100.00
44309;BME280;30022;55.846;37.340;2024-03-22T02:22:14;46568.81;;;-143.51;100.00
44309;BME280;30022;55.846;37.340;2024-03-22T02:24:41;46556.97;;;-143.51;100.00
44309;BME280;30022;55.846;37.340;2024-03-22T02:27:10;46590.53;;;-143.51;100.00
44309;BME280;30022;55.846;37.340;2024-03-22T02:29:39;46555.00;;;-143.51;100.00
44309;BME280;30022;55.846;37.340;2024-03-22T02:32:10;46588.56;;;-143.51;100.00
44309;BME280;30022;55.846;37.340;2024-03-22T02:34:36;46555.00;;;-143.51;100.00
44309;BME280;30022;55.846;37.340;2024-03-22T02:37:02;46555.00;;;-143.51;100.00
44309;BME280;30022;55.846;37.340;2024-03-22T02:39:30;46580.66;;;-143.51;100.00
44309;BME280;30022;55.846;37.340;2024-03-22T02:41:56;46564.88;;;-143.51;100.00
44309;BME280;30022;55.846;37.340;2024-03-22T02:44:21;46558.94;;;-143.51;100.00
44309;BME280;30022;55.846;37.340;2024-03-22T02:46:47;46572.78;;;-143.51;100.00
44309;BME280;30022;55.846;37.340;2024-03-22T02:49:13;46525.38;;;-143.51;100.00
44309;BME280;30022;55.846;37.340;2024-03-22T02:51:39;46568.81;;;-143.51;100.00
44309;BME280;30022;55.846;37.340;2024-03-22T02:54:05;46566.84;;;-143.51;100.00
44309;BME280;30022;55.846;37.340;2024-03-22T02:56:31;46556.97;;;-143.51;100.00
44309;BME280;30022;55.846;37.340;2024-03-22T02:58:57;46574.75;;;-143.51;100.00
44309;BME280;30022;55.846;37.340;2024-03-22T03:01:22;46539.19;;;-143.51;100.00
44309;BME280;30022;55.846;37.340;2024-03-22T03:03:48;46566.84;;;-143.51;100.00
44309;BME280;30022;55.846;37.340;2024-03-22T03:06:14;46556.97;;;-143.51;100.00
44309;BME280;30022;55.846;37.340;2024-03-22T03:08:40;46549.06;;;-143.51;100.00
44309;BME280;30022;55.846;37.340;2024-03-22T03:11:07;46588.56;;;-143.51;100.00
44309;BME280;30022;55.846;37.340;2024-03-22T03:13:32;46568.81;;;-143.51;100.00
44309;BME280;30022;55.846;37.340;2024-03-22T03:15:58;46566.84;;;-143.51;100.00
44309;BME280;30022;55.846;37.340;2024-03-22T03:18:25;46602.41;;;-143.51;100.00
44309;BME280;30022;55.846;37.340;2024-03-22T03:20:57;46551.06;;;-143.51;100.00
44309;BME280;30022;55.846;37.340;2024-03-22T03:23:29;46539.19;;;-143.51;100.00
44309;BME280;30022;55.846;37.340;2024-03-22T03:25:55;46578.69;;;-143.51;100.00
44309;BME280;30022;55.846;37.340;2024-03-22T03:28:21;46564.88;;;-143.51;100.00
44309;BME280;30022;55.846;37.340;2024-03-22T03:30:55;46574.75;;;-143.51;100.00
44309;BME280;30022;55.846;37.340;2024-03-22T03:33:23;46553.03;;;-143.51;100.00
44309;BME280;30022;55.846;37.340;2024-03-22T03:35:49;46572.78;;;-143.51;100.00
44309;BME280;30022;55.846;37.340;2024-03-22T03:38:15;46562.91;;;-143.51;100.00
44309;BME280;30022;55.846;37.340;2024-03-22T03:40:42;46592.53;;;-143.51;100.00
44309;BME280;30022;55.846;37.340;2024-03-22T03:43:07;46590.53;;;-143.51;100.00
44309;BME280;30022;55.846;37.340;2024-03-22T03:45:36;46560.91;;;-143.51;100.00
44309;BME280;30022;55.846;37.340;2024-03-22T03:48:02;46580.66;;;-143.51;100.00
44309;BME280;30022;55.846;37.340;2024-03-22T03:50:28;46580.66;;;-143.51;100.00
44309;BME280;30022;55.846;37.340;2024-03-22T03:52:54;46562.91;;;-143.51;100.00
44309;BME280;30022;55.846;37.340;2024-03-22T03:55:20;46558.94;;;-143.51;100.00
44309;BME280;30022;55.846;37.340;2024-03-22T03:57:46;46592.53;;;-143.51;100.00
44309;BME280;30022;55.846;37.340;2024-03-22T04:00:12;46553.03;;;-143.51;100.00
44309;BME280;30022;55.846;37.340;2024-03-22T04:02:39;46562.91;;;-143.51;100.00
44309;BME280;30022;55.846;37.340;2024-03-22T04:05:06;46570.78;;;-143.51;100.00
44309;BME280;30022;55.846;37.340;2024-03-22T04:07:33;46602.41;;;-143.51;100.00
44309;BME280;30022;55.846;37.340;2024-03-22T04:10:01;46598.44;;;-143.51;100.00
44309;BME280;30022;55.846;37.340;2024-03-22T04:12:29;46543.16;;;-143.51;100.00
44309;BME280;30022;55.846;37.340;2024-03-22T04:14:56;46566.84;;;-143.51;100.00
44309;BME280;30022;55.846;37.340;2024-03-22T04:17:22;46551.06;;;-143.51;100.00
44309;BME280;30022;55.846;37.340;2024-03-22T04:19:50;46576.72;;;-143.51;100.00
44309;BME280;30022;55.846;37.340;2024-03-22T04:22:17;46586.59;;;-143.51;100.00
44309;BME280;30022;55.846;37.340;2024-03-22T04:24:44;46545.13;;;-143.51;100.00
44309;BME280;30022;55.846;37.340;2024-03-22T04:30:21;46556.97;;;-143.51;100.00
44309;BME280;30022;55.846;37.340;2024-03-22T04:32:49;46558.94;;;-143.51;100.00
44309;BME280;30022;55.846;37.340;2024-03-22T04:35:16;46537.22;;;-143.51;100.00
44309;BME280;30022;55.846;37.340;2024-03-22T04:37:57;46545.13;;;-143.51;100.00
44309;BME280;30022;55.846;37.340;2024-03-22T04:40:26;46555.00;;;-143.51;100.00
44309;BME280;30022;55.846;37.340;2024-03-22T04:45:43;46568.81;;;-143.51;100.00
44309;BME280;30022;55.846;37.340;2024-03-22T04:48:10;46558.94;;;-143.51;100.00
44309;BME280;30022;55.846;37.340;2024-03-22T04:50:42;46570.78;;;-143.51;100.00
44309;BME280;30022;55.846;37.340;2024-03-22T04:56:10;46545.13;;;-143.51;100.00
44309;BME280;30022;55.846;37.340;2024-03-22T04:58:36;46533.28;;;-143.51;100.00
44309;BME280;30022;55.846;37.340;2024-03-22T05:01:04;46519.44;;;-143.51;100.00
44309;BME280;30022;55.846;37.340;2024-03-22T05:03:31;46541.19;;;-143.51;100.00
44309;BME280;30022;55.846;37.340;2024-03-22T05:05:58;46566.84;;;-143.51;100.00
44309;BME280;30022;55.846;37.340;2024-03-22T05:08:28;46586.59;;;-143.51;100.00
44309;BME280;30022;55.846;37.340;2024-03-22T05:10:55;46558.94;;;-143.51;100.00
44309;BME280;30022;55.846;37.340;2024-03-22T05:13:26;46541.19;;;-143.51;100.00
44309;BME280;30022;55.846;37.340;2024-03-22T05:19:09;46590.53;;;-143.51;100.00
44309;BME280;30022;55.846;37.340;2024-03-22T05:25:05;46539.19;;;-143.51;100.00
44309;BME280;30022;55.846;37.340;2024-03-22T05:27:37;46558.94;;;-143.51;100.00
44309;BME280;30022;55.846;37.340;2024-03-22T05:30:05;46541.19;;;-143.51;100.00
44309;BME280;30022;55.846;37.340;2024-03-22T05:33:24;46545.13;;;-143.51;100.00
44309;BME280;30022;55.846;37.340;2024-03-22T05:35:50;46564.88;;;-143.51;100.00
44309;BME280;30022;55.846;37.340;2024-03-22T05:38:17;46551.06;;;-143.51;100.00
44309;BME280;30022;55.846;37.340;2024-03-22T05:40:44;46547.09;;;-143.51;100.00
44309;BME280;30022;55.846;37.340;2024-03-22T05:43:13;46558.94;;;-143.51;100.00
44309;BME280;30022;55.846;37.340;2024-03-22T05:45:41;46568.81;;;-143.51;100.00
44309;BME280;30022;55.846;37.340;2024-03-22T05:48:07;46558.94;;;-143.51;100.00
44309;BME280;30022;55.846;37.340;2024-03-22T05:50:35;46568.81;;;-143.51;100.00
44309;BME280;30022;55.846;37.340;2024-03-22T05:53:00;46539.19;;;-143.51;100.00
44309;BME280;30022;55.846;37.340;2024-03-22T05:55:28;46566.84;;;-143.51;100.00
44309;BME280;30022;55.846;37.340;2024-03-22T05:57:56;46551.06;;;-143.51;100.00
44309;BME280;30022;55.846;37.340;2024-03-22T06:00:22;46562.91;;;-143.51;100.00
44309;BME280;30022;55.846;37.340;2024-03-22T06:02:49;46547.09;;;-143.51;100.00
44309;BME280;30022;55.846;37.340;2024-03-22T06:05:15;46586.59;;;-143.51;100.00
44309;BME280;30022;55.846;37.340;2024-03-22T06:07:44;46523.41;;;-143.51;100.00
44309;BME280;30022;55.846;37.340;2024-03-22T06:10:11;46551.06;;;-143.51;100.00
44309;BME280;30022;55.846;37.340;2024-03-22T06:12:38;46531.31;;;-143.51;100.00
44309;BME280;30022;55.846;37.340;2024-03-22T06:15:04;46543.16;;;-143.51;100.00
44309;BME280;30022;55.846;37.340;2024-03-22T06:17:33;46527.34;;;-143.51;100.00
44309;BME280;30022;55.846;37.340;2024-03-22T06:20:01;46549.06;;;-143.51;100.00
44309;BME280;30022;55.846;37.340;2024-03-22T06:22:30;46562.91;;;-143.51;100.00
44309;BME280;30022;55.846;37.340;2024-03-22T06:24:59;46551.06;;;-143.51;100.00
44309;BME280;30022;55.846;37.340;2024-03-22T06:27:25;46539.19;;;-143.51;100.00
44309;BME280;30022;55.846;37.340;2024-03-22T06:29:51;46549.06;;;-143.51;100.00
44309;BME280;30022;55.846;37.340;2024-03-22T06:32:20;46551.06;;;-143.51;100.00
44309;BME280;30022;55.846;37.340;2024-03-22T06:34:48;46555.00;;;-143.51;100.00
44309;BME280;30022;55.846;37.340;2024-03-22T06:40:33;46551.06;;;-143.51;100.00
44309;BME280;30022;55.846;37.340;2024-03-22T06:43:03;46562.91;;;-143.51;100.00
44309;BME280;30022;55.846;37.340;2024-03-22T06:51:33;46539.19;;;-143.51;100.00
44309;BME280;30022;55.846;37.340;2024-03-22T07:03:21;46553.03;;;-143.51;100.00
44309;BME280;30022;55.846;37.340;2024-03-22T07:05:55;46527.34;;;-143.51;100.00
44309;BME280;30022;55.846;37.340;2024-03-22T07:08:23;46541.19;;;-143.51;100.00
44309;BME280;30022;55.846;37.340;2024-03-22T07:10:50;46509.56;;;-143.51;100.00
44309;BME280;30022;55.846;37.340;2024-03-22T07:13:17;46558.94;;;-143.51;100.00
44309;BME280;30022;55.846;37.340;2024-03-22T07:15:44;46537.22;;;-143.51;100.00
44309;BME280;30022;55.846;37.340;2024-03-22T07:18:10;46541.19;;;-143.51;100.00
44309;BME280;30022;55.846;37.340;2024-03-22T07:20:36;46515.50;;;-143.51;100.00
44309;BME280;30022;55.846;37.340;2024-03-22T07:23:02;46531.31;;;-143.51;100.00
44309;BME280;30022;55.846;37.340;2024-03-22T07:25:29;46531.31;;;-143.51;100.00
44309;BME280;30022;55.846;37.340;2024-03-22T07:27:55;46539.19;;;-143.51;100.00
44309;BME280;30022;55.846;37.340;2024-03-22T07:30:22;46531.31;;;-143.51;100.00
44309;BME280;30022;55.846;37.340;2024-03-22T07:32:48;46529.31;;;-143.51;100.00
44309;BME280;30022;55.846;37.340;2024-03-22T07:35:15;46525.38;;;-143.51;100.00
44309;BME280;30022;55.846;37.340;2024-03-22T07:37:46;46562.91;;;-143.51;100.00
44309;BME280;30022;55.846;37.340;2024-03-22T07:40:12;46529.31;;;-143.51;100.00
44309;BME280;30022;55.846;37.340;2024-03-22T07:42:39;46539.19;;;-143.51;100.00
44309;BME280;30022;55.846;37.340;2024-03-22T07:45:05;46529.31;;;-143.51;100.00
44309;BME280;30022;55.846;37.340;2024-03-22T07:47:31;46515.50;;;-143.51;100.00
44309;BME280;30022;55.846;37.340;2024-03-22T07:52:56;46529.31;;;-143.51;100.00
44309;BME280;30022;55.846;37.340;2024-03-22T07:55:22;46533.28;;;-143.51;100.00
44309;BME280;30022;55.846;37.340;2024-03-22T07:57:48;46539.19;;;-143.51;100.00
44309;BME280;30022;55.846;37.340;2024-03-22T08:00:15;46531.31;;;-143.51;100.00
44309;BME280;30022;55.846;37.340;2024-03-22T08:02:41;46531.31;;;-143.51;100.00
44309;BME280;30022;55.846;37.340;2024-03-22T08:05:07;46533.28;;;-143.51;100.00
44309;BME280;30022;55.846;37.340;2024-03-22T08:07:34;46535.25;;;-143.51;100.00
44309;BME280;30022;55.846;37.340;2024-03-22T08:10:00;46529.31;;;-143.51;100.00
44309;BME280;30022;55.846;37.340;2024-03-22T08:12:31;46507.59;;;-143.51;100.00
44309;BME280;30022;55.846;37.340;2024-03-22T08:15:02;46556.97;;;-143.51;100.00
44309;BME280;30022;55.846;37.340;2024-03-22T08:17:31;46543.16;;;-143.51;100.00
44309;BME280;30022;55.846;37.340;2024-03-22T08:19:57;46537.22;;;-143.51;100.00
44309;BME280;30022;55.846;37.340;2024-03-22T08:22:26;46558.94;;;-143.51;100.00
44309;BME280;30022;55.846;37.340;2024-03-22T08:24:53;46539.19;;;-143.51;100.00
44309;BME280;30022;55.846;37.340;2024-03-22T08:27:21;46551.06;;;-143.51;100.00
44309;BME280;30022;55.846;37.340;2024-03-22T08:29:47;46541.19;;;-143.51;100.00
44309;BME280;30022;55.846;37.340;2024-03-22T08:32:17;46555.00;;;-143.51;100.00
44309;BME280;30022;55.846;37.340;2024-03-22T08:37:54;46556.97;;;-143.51;100.00
44309;BME280;30022;55.846;37.340;2024-03-22T08:40:20;46535.25;;;-143.51;100.00
44309;BME280;30022;55.846;37.340;2024-03-22T08:42:46;46539.19;;;-143.51;100.00
44309;BME280;30022;55.846;37.340;2024-03-22T08:45:15;46527.34;;;-143.51;100.00
44309;BME280;30022;55.846;37.340;2024-03-22T08:47:42;46562.91;;;-143.51;100.00
44309;BME280;30022;55.846;37.340;2024-03-22T08:50:08;46537.22;;;-143.51;100.00
44309;BME280;30022;55.846;37.340;2024-03-22T08:52:35;46551.06;;;-143.51;98.98
44309;BME280;30022;55.846;37.340;2024-03-22T08:55:03;46551.06;;;-143.51;100.00
44309;BME280;30022;55.846;37.340;2024-03-22T08:57:35;46553.03;;;-143.51;97.54
44309;BME280;30022;55.846;37.340;2024-03-22T09:00:03;46564.88;;;-143.51;95.89
44309;BME280;30022;55.846;37.340;2024-03-22T09:02:28;46541.19;;;-143.51;94.53
44309;BME280;30022;55.846;37.340;2024-03-22T09:04:57;46541.19;;;-143.51;92.13
44309;BME280;30022;55.846;37.340;2024-03-22T09:07:23;46551.06;;;-143.51;91.34
44309;BME280;30022;55.846;37.340;2024-03-22T09:09:50;46547.09;;;-143.51;91.21
44309;BME280;30022;55.846;37.340;2024-03-22T09:12:16;46562.91;;;-143.51;89.25
44309;BME280;30022;55.846;37.340;2024-03-22T09:14:42;46560.91;;;-143.51;89.24
44309;BME280;30022;55.846;37.340;2024-03-22T09:17:09;46537.22;;;-143.51;88.54
44309;BME280;30022;55.846;37.340;2024-03-22T09:19:44;46525.38;;;-143.51;88.07
44309;BME280;30022;55.846;37.340;2024-03-22T09:22:14;46560.91;;;-143.51;87.53
44309;BME280;30022;55.846;37.340;2024-03-22T09:24:40;46586.59;;;-143.51;87.65
44309;BME280;30022;55.846;37.340;2024-03-22T09:27:06;46566.84;;;-143.51;88.34
44309;BME280;30022;55.846;37.340;2024-03-22T09:29:35;46566.84;;;-143.51;88.34
44309;BME280;30022;55.846;37.340;2024-03-22T09:32:01;46564.88;;;-143.51;86.23
44309;BME280;30022;55.846;37.340;2024-03-22T09:34:27;46574.75;;;-143.51;84.79
44309;BME280;30022;55.846;37.340;2024-03-22T09:36:53;46590.53;;;-143.51;85.49
44309;BME280;30022;55.846;37.340;2024-03-22T09:39:20;46562.91;;;-143.51;86.49
44309;BME280;30022;55.846;37.340;2024-03-22T09:41:46;46558.94;;;-143.51;86.55
44309;BME280;30022;55.846;37.340;2024-03-22T09:44:13;46570.78;;;-143.51;86.73
44309;BME280;30022;55.846;37.340;2024-03-22T09:46:50;46574.75;;;-143.51;85.84
44309;BME280;30022;55.846;37.340;2024-03-22T09:49:17;46574.75;;;-143.51;86.90
44309;BME280;30022;55.846;37.340;2024-03-22T09:51:46;46570.78;;;-143.51;86.34
44309;BME280;30022;55.846;37.340;2024-03-22T09:54:13;46596.47;;;-143.51;85.71
44309;BME280;30022;55.846;37.340;2024-03-22T09:56:39;46568.81;;;-143.51;86.26
44309;BME280;30022;55.846;37.340;2024-03-22T09:59:06;46555.00;;;-143.51;85.53
44309;BME280;30022;55.846;37.340;2024-03-22T10:01:34;46574.75;;;-143.51;86.30
44309;BME280;30022;55.846;37.340;2024-03-22T10:04:09;46558.94;;;-143.51;87.36
44309;BME280;30022;55.846;37.340;2024-03-22T10:16:15;46574.75;;;-143.51;86.37
44309;BME280;30022;55.846;37.340;2024-03-22T10:41:49;46584.63;;;-143.51;82.13
44309;BME280;30022;55.846;37.340;2024-03-22T10:44:23;46584.63;;;-143.51;80.60
44309;BME280;30022;55.846;37.340;2024-03-22T10:46:57;46574.75;;;-143.51;79.56
44309;BME280;30022;55.846;37.340;2024-03-22T10:49:30;46572.78;;;-143.51;80.16
44309;BME280;30022;55.846;37.340;2024-03-22T10:52:01;46588.56;;;-143.51;81.06
44309;BME280;30022;55.846;37.340;2024-03-22T10:54:40;46580.66;;;-143.51;80.08
44309;BME280;30022;55.846;37.340;2024-03-22T10:57:20;46598.44;;;-143.51;78.86
44309;BME280;30022;55.846;37.340;2024-03-22T10:59:53;46582.66;;;-143.51;78.21
44309;BME280;30022;55.846;37.340;2024-03-22T11:02:23;46594.50;;;-143.51;76.96
44309;BME280;30022;55.846;37.340;2024-03-22T11:05:02;46582.66;;;-143.51;76.91
44309;BME280;30022;55.846;37.340;2024-03-22T11:07:29;46553.03;;;-143.51;77.17
44309;BME280;30022;55.846;37.340;2024-03-22T11:10:02;46582.66;;;-143.51;75.90
44309;BME280;30022;55.846;37.340;2024-03-22T11:12:33;46580.66;;;-143.51;75.35
44309;BME280;30022;55.846;37.340;2024-03-22T11:15:03;46570.78;;;-143.51;73.29
44309;BME280;30022;55.846;37.340;2024-03-22T11:17:29;46594.50;;;-143.51;73.39
44309;BME280;30022;55.846;37.340;2024-03-22T11:20:06;46586.59;;;-143.51;73.15
44309;BME280;30022;55.846;37.340;2024-03-22T11:25:26;46558.94;;;-143.51;72.66
44309;BME280;30022;55.846;37.340;2024-03-22T11:27:58;46594.50;;;-143.51;72.62
44309;BME280;30022;55.846;37.340;2024-03-22T11:36:38;46572.78;;;-143.51;70.43
44309;BME280;30022;55.846;37.340;2024-03-22T11:39:09;46584.63;;;-143.51;70.91
44309;BME280;30022;55.846;37.340;2024-03-22T11:42:04;46580.66;;;-143.51;72.02
44309;BME280;30022;55.846;37.340;2024-03-22T11:44:32;46592.53;;;-143.51;70.72
44309;BME280;30022;55.846;37.340;2024-03-22T11:47:08;46590.53;;;-143.51;70.79
44309;BME280;30022;55.846;37.340;2024-03-22T11:53:53;46596.47;;;-143.51;69.05
44309;BME280;30022;55.846;37.340;2024-03-22T12:09:08;46586.59;;;-143.51;68.86
44309;BME280;30022;55.846;37.340;2024-03-22T12:11:40;46616.22;;;-143.51;67.41
44309;BME280;30022;55.846;37.340;2024-03-22T12:14:08;46598.44;;;-143.51;68.00
44309;BME280;30022;55.846;37.340;2024-03-22T12:16:38;46594.50;;;-143.51;66.91
44309;BME280;30022;55.846;37.340;2024-03-22T12:19:05;46614.25;;;-143.51;66.04
44309;BME280;30022;55.846;37.340;2024-03-22T12:21:39;46578.69;;;-143.51;66.28
44309;BME280;30022;55.846;37.340;2024-03-22T12:24:05;46630.03;;;-143.51;66.31
44309;BME280;30022;55.846;37.340;2024-03-22T12:26:34;46602.41;;;-143.51;65.53
44309;BME280;30022;55.846;37.340;2024-03-22T12:29:12;46590.53;;;-143.51;63.88
44309;BME280;30022;55.846;37.340;2024-03-22T12:31:40;46594.50;;;-143.51;63.90
44309;BME280;30022;55.846;37.340;2024-03-22T12:36:57;46614.25;;;-143.51;62.73
44309;BME280;30022;55.846;37.340;2024-03-22T12:39:28;46596.47;;;-143.51;62.05
44309;BME280;30022;55.846;37.340;2024-03-22T12:41:58;46594.50;;;-143.51;63.18
44309;BME280;30022;55.846;37.340;2024-03-22T12:47:04;46616.22;;;-143.51;62.62
44309;BME280;30022;55.846;37.340;2024-03-22T12:49:35;46596.47;;;-143.51;63.32
44309;BME280;30022;55.846;37.340;2024-03-22T12:58:10;46612.28;;;-143.51;60.79
44309;BME280;30022;55.846;37.340;2024-03-22T13:03:55;46582.66;;;-143.51;61.61
44309;BME280;30022;55.846;37.340;2024-03-22T13:06:21;46602.41;;;-143.51;62.10
44309;BME280;30022;55.846;37.340;2024-03-22T13:08:46;46608.31;;;-143.51;62.28
44309;BME280;30022;55.846;37.340;2024-03-22T13:11:12;46598.44;;;-143.51;61.52
44309;BME280;30022;55.846;37.340;2024-03-22T13:13:39;46634.00;;;-143.51;60.80
44309;BME280;30022;55.846;37.340;2024-03-22T13:16:06;46632.03;;;-143.51;60.67
44309;BME280;30022;55.846;37.340;2024-03-22T13:18:32;46586.59;;;-143.51;61.27
44309;BME280;30022;55.846;37.340;2024-03-22T13:20:58;46610.28;;;-143.51;61.05
44309;BME280;30022;55.846;37.340;2024-03-22T13:23:28;46574.75;;;-143.51;61.13
44309;BME280;30022;55.846;37.340;2024-03-22T13:26:18;46590.53;;;-143.51;62.09
44309;BME280;30022;55.846;37.340;2024-03-22T13:38:47;46618.19;;;-143.51;61.03
44309;BME280;30022;55.846;37.340;2024-03-22T13:48:00;46590.53;;;-143.51;60.40
44309;BME280;30022;55.846;37.340;2024-03-22T13:50:54;46586.59;;;-143.51;60.61
44309;BME280;30022;55.846;37.340;2024-03-22T13:53:22;46582.66;;;-143.51;60.34
44309;BME280;30022;55.846;37.340;2024-03-22T13:56:43;46582.66;;;-143.51;60.29
44309;BME280;30022;55.846;37.340;2024-03-22T14:02:27;46610.28;;;-143.51;60.54
44309;BME280;30022;55.846;37.340;2024-03-22T14:05:43;46602.41;;;-143.51;60.22
44309;BME280;30022;55.846;37.340;2024-03-22T14:14:10;46600.41;;;-143.51;60.25
44309;BME280;30022;55.846;37.340;2024-03-22T14:16:45;46614.25;;;-143.51;60.61
44309;BME280;30022;55.846;37.340;2024-03-22T14:19:13;46606.34;;;-143.51;60.70
44309;BME280;30022;55.846;37.340;2024-03-22T14:21:59;46614.25;;;-143.51;61.05
44309;BME280;30022;55.846;37.340;2024-03-22T14:24:28;46608.31;;;-143.51;61.24
44309;BME280;30022;55.846;37.340;2024-03-22T14:30:05;46586.59;;;-143.51;61.54
44309;BME280;30022;55.846;37.340;2024-03-22T14:32:40;46614.25;;;-143.51;61.51
44309;BME280;30022;55.846;37.340;2024-03-22T14:35:06;46598.44;;;-143.51;61.96
44309;BME280;30022;55.846;37.340;2024-03-22T14:37:54;46590.53;;;-143.51;61.73
44309;BME280;30022;55.846;37.340;2024-03-22T14:52:49;46602.41;;;-143.51;62.93
44309;BME280;30022;55.846;37.340;2024-03-22T14:56:00;46610.28;;;-143.51;63.40
44309;BME280;30022;55.846;37.340;2024-03-22T14:58:47;46596.47;;;-143.51;63.58
44309;BME280;30022;55.846;37.340;2024-03-22T15:01:13;46606.34;;;-143.51;63.88
44309;BME280;30022;55.846;37.340;2024-03-22T15:03:39;46614.25;;;-143.51;64.06
44309;BME280;30022;55.846;37.340;2024-03-22T15:06:06;46614.25;;;-143.51;64.60
44309;BME280;30022;55.846;37.340;2024-03-22T15:08:35;46598.44;;;-143.51;64.69
44309;BME280;30022;55.846;37.340;2024-03-22T15:11:01;46562.91;;;-143.51;65.06